»·PEaware :: SWA1468 KSAN-KLAS

SWA1468 :: KSAN-KLAS

FLIGHT INFORMATION

Flight Status: Arrived
Operator:
Southwest Airlines
More flights by this operator :: More flights under this callsign
Pilot: Daniel W. (24238)
Aircraft: BOEING 737-800
(B738)
More flights by this aircraft type
Origin: KSAN San Diego Intl-Lindbergh
United States
Destination: KLAS McCarran Intl
United States
More flights between these airports :: More routes between these airports
Route: PADRZ2 CHKNN SEBBY YELAH MISEN KEPEC6
File this flight plan on PilotEdge
Remarks: PBN / A1D1O1S2T1 NAV / RNVD1E1A1 RNP10 DOF / 210105 REG / N8308K SEL / GMQS CODE / AB5BD4 PER / C
Altitude:
(Current/Filed)
29,000ft
Speed:
(Current/Filed)
412kts
Departed: 04-Jan-21 07:53 PM
Arrived: 04-Jan-21 08:46 PM
Distance/Time
Traveled:
225nm/0:53
Distance/Time
To Go:
Arrived

Flight Plot

Page will automatically refresh every two minutes.

Flight plan parsing failed; only flown route is shown


Map Options




Map Legend


Flown Route
Filed Route
Departure Airport
Arrival Airport
Navaid (VOR, NDB)
Fix

Horizontal Profiles

Position Reports

Time Latitude Longitude Heading Altitude Ground
Speed
04-Jan-21 18:52 32.733239 -117.196027 197 23ft 0kts
04-Jan-21 18:53 32.733239 -117.196027 197 23ft 0kts
04-Jan-21 18:54 32.733239 -117.196027 197 23ft 0kts
04-Jan-21 18:55 32.733239 -117.196027 197 23ft 0kts
04-Jan-21 18:56 32.733239 -117.196027 197 23ft 0kts
04-Jan-21 18:57 32.733239 -117.196027 197 23ft 0kts
04-Jan-21 18:58 32.733239 -117.196027 197 23ft 0kts
04-Jan-21 18:59 32.733239 -117.196027 197 23ft 0kts
04-Jan-21 19:00 32.733239 -117.196027 197 23ft 0kts
04-Jan-21 19:01 32.733239 -117.196027 197 23ft 0kts
04-Jan-21 19:02 32.733239 -117.196027 197 23ft 0kts
04-Jan-21 19:03 32.733239 -117.196027 197 23ft 0kts
04-Jan-21 19:04 32.733239 -117.196027 197 23ft 0kts
04-Jan-21 19:05 32.733239 -117.196027 197 23ft 0kts
04-Jan-21 19:06 32.733239 -117.196027 197 23ft 0kts
04-Jan-21 19:07 32.733239 -117.196027 197 23ft 0kts
04-Jan-21 19:08 32.733239 -117.196027 197 23ft 0kts
04-Jan-21 19:09 32.733239 -117.196027 197 23ft 0kts
04-Jan-21 19:10 32.733239 -117.196027 197 23ft 0kts
04-Jan-21 19:11 32.733239 -117.196027 197 23ft 0kts
04-Jan-21 19:12 32.733239 -117.196027 197 23ft 0kts
04-Jan-21 19:14 32.733239 -117.196027 197 23ft 0kts
04-Jan-21 19:15 32.733239 -117.196027 197 23ft 0kts
04-Jan-21 19:16 32.733239 -117.196027 197 23ft 0kts
04-Jan-21 19:17 32.733239 -117.196027 197 23ft 0kts
04-Jan-21 19:18 32.733239 -117.196027 197 23ft 0kts
04-Jan-21 19:19 32.733239 -117.196027 197 23ft 0kts
04-Jan-21 19:20 32.733239 -117.196027 197 23ft 0kts
04-Jan-21 19:21 32.733239 -117.196027 197 23ft 0kts
04-Jan-21 19:22 32.733239 -117.196027 197 23ft 0kts
04-Jan-21 19:23 32.733239 -117.196027 197 23ft 0kts
04-Jan-21 19:24 32.733239 -117.196027 197 23ft 0kts
04-Jan-21 19:25 32.733239 -117.196027 197 23ft 0kts
04-Jan-21 19:26 32.733239 -117.196027 197 23ft 0kts
04-Jan-21 19:27 32.733239 -117.196027 197 23ft 0kts
04-Jan-21 19:28 32.733239 -117.196027 197 23ft 0kts
04-Jan-21 19:28 32.733239 -117.196027 197 23ft 0kts
04-Jan-21 19:30 32.733239 -117.196027 197 23ft 0kts
04-Jan-21 19:31 32.733239 -117.196027 197 23ft 0kts
04-Jan-21 19:31 32.733239 -117.196027 197 23ft 0kts
04-Jan-21 19:32 32.733239 -117.196027 197 23ft 0kts
04-Jan-21 19:33 32.733239 -117.196027 197 23ft 0kts
04-Jan-21 19:34 32.733239 -117.196027 197 23ft 0kts
04-Jan-21 19:35 32.733239 -117.196027 197 23ft 0kts
04-Jan-21 19:36 32.733239 -117.196027 197 23ft 0kts
04-Jan-21 19:37 32.733239 -117.196027 197 23ft 0kts
04-Jan-21 19:38 32.733239 -117.196027 197 23ft 0kts
04-Jan-21 19:39 32.733239 -117.196027 197 23ft 0kts
04-Jan-21 19:40 32.733239 -117.196027 197 23ft 0kts
04-Jan-21 19:41 32.733239 -117.196027 197 23ft 0kts
04-Jan-21 19:42 32.733239 -117.196027 197 23ft 0kts
04-Jan-21 19:43 32.733239 -117.196027 197 23ft 0kts
04-Jan-21 19:44 32.733239 -117.196027 197 23ft 0kts
04-Jan-21 19:45 32.733856 -117.195958 160 23ft 2kts
04-Jan-21 19:46 32.734097 -117.196202 105 23ft 0kts
04-Jan-21 19:47 32.734097 -117.196202 105 23ft 0kts
04-Jan-21 19:48 32.734088 -117.196163 105 23ft 4kts
04-Jan-21 19:49 32.732554 -117.189808 106 23ft 27kts
04-Jan-21 19:50 32.730630 -117.181868 106 23ft 22kts
04-Jan-21 19:51 32.729565 -117.176601 70 23ft 8kts
04-Jan-21 19:52 32.731438 -117.180932 286 23ft 92kts
04-Jan-21 19:53 32.747337 -117.230372 302 1769ft 197kts
04-Jan-21 19:54 32.784634 -117.293583 306 4441ft 254kts
04-Jan-21 19:55 32.828444 -117.363232 309 8106ft 269kts
04-Jan-21 19:56 32.875120 -117.435347 307 11357ft 290kts
04-Jan-21 19:57 32.929324 -117.519743 305 13511ft 337kts
04-Jan-21 19:58 32.987769 -117.610649 304 16359ft 354kts
04-Jan-21 19:59 33.048819 -117.706214 303 18949ft 369kts
04-Jan-21 20:00 33.125571 -117.792434 314 21278ft 390kts
04-Jan-21 20:01 33.210144 -117.878317 314 23352ft 405kts
04-Jan-21 20:02 33.298843 -117.964486 314 25127ft 419kts
04-Jan-21 20:03 33.390422 -118.053614 314 25233ft 422kts
04-Jan-21 20:04 33.481070 -118.142706 314 25231ft 423kts
04-Jan-21 20:05 33.573333 -118.230566 321 25230ft 427kts
04-Jan-21 20:06 33.681458 -118.294202 330 25224ft 435kts
04-Jan-21 20:07 33.802570 -118.279237 31 25218ft 475kts
04-Jan-21 20:08 33.884958 -118.154021 55 25229ft 482kts
04-Jan-21 20:09 33.958857 -118.018833 55 25224ft 482kts
04-Jan-21 20:10 34.032012 -117.883733 56 25227ft 482kts
04-Jan-21 20:11 34.107103 -117.749221 50 25229ft 481kts
04-Jan-21 20:12 34.193062 -117.625046 48 25219ft 481kts
04-Jan-21 20:13 34.278255 -117.500280 49 25222ft 481kts
04-Jan-21 20:14 34.363618 -117.375273 49 25229ft 482kts
04-Jan-21 20:15 34.448945 -117.249472 49 25236ft 483kts
04-Jan-21 20:16 34.534054 -117.123350 49 25252ft 483kts
04-Jan-21 20:17 34.618715 -116.997414 49 25244ft 483kts
04-Jan-21 20:18 34.703762 -116.870924 50 25218ft 483kts
04-Jan-21 20:19 34.788497 -116.743642 50 25188ft 483kts
04-Jan-21 20:20 34.877208 -116.621461 39 25181ft 481kts
04-Jan-21 20:21 34.981270 -116.521706 36 25175ft 463kts
04-Jan-21 20:22 35.081169 -116.424445 36 24554ft 456kts
04-Jan-21 20:23 35.171845 -116.318297 45 22858ft 447kts
04-Jan-21 20:24 35.256544 -116.210364 43 21215ft 433kts
04-Jan-21 20:25 35.339534 -116.105509 43 19611ft 423kts
04-Jan-21 20:26 35.420992 -116.003295 42 18049ft 413kts
04-Jan-21 20:27 35.500548 -115.903043 42 16380ft 404kts
04-Jan-21 20:28 35.577561 -115.805039 42 14892ft 389kts
04-Jan-21 20:29 35.649376 -115.713343 42 13503ft 343kts
04-Jan-21 20:30 35.713934 -115.630948 41 13001ft 323kts
04-Jan-21 20:31 35.787122 -115.572478 3 13011ft 313kts
04-Jan-21 20:32 35.872115 -115.568988 355 13002ft 305kts
04-Jan-21 20:33 35.957177 -115.561745 12 12985ft 315kts
04-Jan-21 20:34 36.003497 -115.470728 82 12008ft 341kts
04-Jan-21 20:35 36.028835 -115.365319 85 10969ft 295kts
04-Jan-21 20:36 36.023291 -115.265901 97 9094ft 287kts
04-Jan-21 20:37 36.016355 -115.170142 96 8114ft 276kts
04-Jan-21 20:38 36.010032 -115.076983 96 7036ft 268kts
04-Jan-21 20:39 36.004776 -114.986133 95 5929ft 262kts
04-Jan-21 20:40 36.019743 -114.904679 32 4680ft 258kts
04-Jan-21 20:41 36.073525 -114.938376 278 4493ft 254kts
04-Jan-21 20:42 36.073604 -115.015994 267 3910ft 201kts
04-Jan-21 20:43 36.073630 -115.075805 268 2963ft 154kts
04-Jan-21 20:44 36.073676 -115.127325 269 2204ft 150kts
04-Jan-21 20:45 36.074797 -115.150686 299 2189ft 9kts
04-Jan-21 20:46 36.078535 -115.153216 334 2189ft 19kts
04-Jan-21 20:47 36.080957 -115.152328 102 2189ft 14kts
04-Jan-21 20:48 36.082436 -115.151428 43 2189ft 0kts
04-Jan-21 20:49 36.082436 -115.151428 43 2189ft 0kts
04-Jan-21 20:50 36.082436 -115.151428 43 2189ft 0kts
04-Jan-21 20:51 36.082436 -115.151428 43 2189ft 0kts
04-Jan-21 20:53 36.082436 -115.151428 43 2189ft 0kts
04-Jan-21 20:54 36.082436 -115.151428 43 2189ft 0kts
04-Jan-21 20:55 36.082436 -115.151428 43 2189ft 0kts
04-Jan-21 20:56 36.082436 -115.151428 43 2189ft 0kts
04-Jan-21 20:57 36.082436 -115.151428 43 2189ft 0kts
04-Jan-21 20:58 36.082436 -115.151428 43 2189ft 0kts
04-Jan-21 20:59 36.082436 -115.151428 43 2189ft 0kts
04-Jan-21 21:00 36.082436 -115.151428 43 2189ft 0kts

Navigation Log

Ident Type
Flight plan parsing failed, navigation log unavailable